sim
Sign-in with your pilot id or email,
or register
Callsign
Passwort

Schedule Details

Flight Number: OEF9156
Departure: Toronto Pearson International Airport (CYYZ) at 15:05
Arrival: Los Angeles International Airport (KLAX) at 19:50

Weather Information
Getting current METAR information for CYYZ 191300Z 14005KT 080V160 15SM FEW080 FEW095 14/06 A2985 RMK AC1AC1 SLP113 DENSITY ALT 700FT
Getting current METAR information for KLAX 191253Z 09006KT 10SM -RA FEW008 SCT018 BKN055 11/09 A2987 RMK AO2 RAB16 SLP113 P0012 T01110094

Schedule Frequency

Route Map